sensor_id;sensor_type;location;lat;lon;timestamp;temperature;humidity
76855;DHT22;65828;44.726;37.764;2022-12-18T08:29:34;11.09;74.69
76855;DHT22;65828;44.726;37.764;2022-12-18T08:32:30;11.12;74.60
76855;DHT22;65828;44.726;37.764;2022-12-18T08:35:38;11.12;75.25
76855;DHT22;65828;44.726;37.764;2022-12-18T08:38:32;11.11;74.87
76855;DHT22;65828;44.726;37.764;2022-12-18T08:41:20;11.02;74.95
76855;DHT22;65828;44.726;37.764;2022-12-18T08:44:18;11.00;74.76
76855;DHT22;65828;44.726;37.764;2022-12-18T08:47:30;11.07;74.18
76855;DHT22;65828;44.726;37.764;2022-12-18T08:50:19;10.98;74.65
76855;DHT22;65828;44.726;37.764;2022-12-18T08:53:08;10.92;74.60
76855;DHT22;65828;44.726;37.764;2022-12-18T08:55:57;10.89;74.31
76855;DHT22;65828;44.726;37.764;2022-12-18T08:58:52;10.88;74.03
76855;DHT22;65828;44.726;37.764;2022-12-18T09:01:44;10.83;73.99
76855;DHT22;65828;44.726;37.764;2022-12-18T09:04:42;10.83;73.90
76855;DHT22;65828;44.726;37.764;2022-12-18T09:07:38;10.81;74.35
76855;DHT22;65828;44.726;37.764;2022-12-18T09:10:47;10.88;74.35
76855;DHT22;65828;44.726;37.764;2022-12-18T09:13:44;10.87;74.39
76855;DHT22;65828;44.726;37.764;2022-12-18T09:16:33;10.85;74.39
76855;DHT22;65828;44.726;37.764;2022-12-18T09:19:22;10.83;74.51
76855;DHT22;65828;44.726;37.764;2022-12-18T09:22:12;10.84;74.07
76855;DHT22;65828;44.726;37.764;2022-12-18T09:25:03;10.85;73.91
76855;DHT22;65828;44.726;37.764;2022-12-18T09:27:58;10.86;73.70
76855;DHT22;65828;44.726;37.764;2022-12-18T09:30:51;10.86;73.36
76855;DHT22;65828;44.726;37.764;2022-12-18T09:33:43;10.85;73.62
76855;DHT22;65828;44.726;37.764;2022-12-18T09:36:36;10.86;74.12
76855;DHT22;65828;44.726;37.764;2022-12-18T09:39:25;10.88;73.71
76855;DHT22;65828;44.726;37.764;2022-12-18T09:42:21;10.94;73.48
76855;DHT22;65828;44.726;37.764;2022-12-18T09:45:13;10.84;73.08
76855;DHT22;65828;44.726;37.764;2022-12-18T09:48:31;10.80;73.70
76855;DHT22;65828;44.726;37.764;2022-12-18T09:51:39;10.88;74.64
76855;DHT22;65828;44.726;37.764;2022-12-18T09:54:41;10.85;74.48
76855;DHT22;65828;44.726;37.764;2022-12-18T09:58:04;10.84;74.13
76855;DHT22;65828;44.726;37.764;2022-12-18T10:00:56;10.83;73.99
76855;DHT22;65828;44.726;37.764;2022-12-18T10:03:49;10.75;73.70
76855;DHT22;65828;44.726;37.764;2022-12-18T10:06:46;10.75;73.47
76855;DHT22;65828;44.726;37.764;2022-12-18T10:10:03;10.74;72.82
76855;DHT22;65828;44.726;37.764;2022-12-18T10:28:43;10.49;72.83
76855;DHT22;65828;44.726;37.764;2022-12-18T10:31:41;10.34;72.43
76855;DHT22;65828;44.726;37.764;2022-12-18T10:34:38;10.24;72.74
76855;DHT22;65828;44.726;37.764;2022-12-18T10:37:36;10.20;73.38
76855;DHT22;65828;44.726;37.764;2022-12-18T10:41:03;10.10;73.32
76855;DHT22;65828;44.726;37.764;2022-12-18T10:44:19;9.99;73.90
76855;DHT22;65828;44.726;37.764;2022-12-18T10:46:55;10.01;73.91
76855;DHT22;65828;44.726;37.764;2022-12-18T10:49:58;10.05;72.84
76855;DHT22;65828;44.726;37.764;2022-12-18T10:52:35;10.04;73.13
76855;DHT22;65828;44.726;37.764;2022-12-18T10:55:16;10.13;72.81
76855;DHT22;65828;44.726;37.764;2022-12-18T10:58:18;10.22;72.71
76855;DHT22;65828;44.726;37.764;2022-12-18T11:01:15;10.27;71.80
76855;DHT22;65828;44.726;37.764;2022-12-18T11:06:30;10.18;71.72
76855;DHT22;65828;44.726;37.764;2022-12-18T11:09:24;10.11;71.35
76855;DHT22;65828;44.726;37.764;2022-12-18T11:12:32;10.11;70.83
76855;DHT22;65828;44.726;37.764;2022-12-18T11:15:29;10.06;70.12
76855;DHT22;65828;44.726;37.764;2022-12-18T11:18:32;10.15;69.70
76855;DHT22;65828;44.726;37.764;2022-12-18T11:21:20;10.08;69.92
76855;DHT22;65828;44.726;37.764;2022-12-18T11:24:34;9.93;69.19
76855;DHT22;65828;44.726;37.764;2022-12-18T11:27:30;10.05;68.68
76855;DHT22;65828;44.726;37.764;2022-12-18T11:33:21;10.40;65.95
76855;DHT22;65828;44.726;37.764;2022-12-18T11:36:14;10.07;68.12
76855;DHT22;65828;44.726;37.764;2022-12-18T11:42:24;9.81;68.78
76855;DHT22;65828;44.726;37.764;2022-12-18T11:45:29;9.60;69.01
76855;DHT22;65828;44.726;37.764;2022-12-18T11:48:48;9.49;69.61
76855;DHT22;65828;44.726;37.764;2022-12-18T11:51:52;9.47;70.04
76855;DHT22;65828;44.726;37.764;2022-12-18T11:54:54;9.49;70.04
76855;DHT22;65828;44.726;37.764;2022-12-18T11:58:15;9.48;69.87
76855;DHT22;65828;44.726;37.764;2022-12-18T12:01:11;9.40;70.44
76855;DHT22;65828;44.726;37.764;2022-12-18T12:08:05;9.50;70.00
76855;DHT22;65828;44.726;37.764;2022-12-18T12:11:21;9.49;70.13
76855;DHT22;65828;44.726;37.764;2022-12-18T12:17:16;9.53;70.10
76855;DHT22;65828;44.726;37.764;2022-12-18T12:20:12;9.51;69.83
76855;DHT22;65828;44.726;37.764;2022-12-18T12:23:26;9.55;69.85
76855;DHT22;65828;44.726;37.764;2022-12-18T12:26:28;9.53;70.03
76855;DHT22;65828;44.726;37.764;2022-12-18T12:35:47;9.53;69.05
76855;DHT22;65828;44.726;37.764;2022-12-18T12:38:52;9.45;69.16
76855;DHT22;65828;44.726;37.764;2022-12-18T12:41:32;9.46;69.20
76855;DHT22;65828;44.726;37.764;2022-12-18T12:44:32;9.47;69.74
76855;DHT22;65828;44.726;37.764;2022-12-18T12:47:20;9.47;69.91
76855;DHT22;65828;44.726;37.764;2022-12-18T12:50:22;9.45;69.62
76855;DHT22;65828;44.726;37.764;2022-12-18T12:53:27;9.45;69.49
76855;DHT22;65828;44.726;37.764;2022-12-18T12:56:29;9.46;69.59
76855;DHT22;65828;44.726;37.764;2022-12-18T13:00:00;9.47;69.19
76855;DHT22;65828;44.726;37.764;2022-12-18T13:03:08;9.39;69.47
76855;DHT22;65828;44.726;37.764;2022-12-18T13:06:23;9.39;69.61
76855;DHT22;65828;44.726;37.764;2022-12-18T13:09:14;9.42;69.35
76855;DHT22;65828;44.726;37.764;2022-12-18T13:12:08;9.40;69.34
76855;DHT22;65828;44.726;37.764;2022-12-18T13:15:50;9.42;69.23
76855;DHT22;65828;44.726;37.764;2022-12-18T13:18:54;9.49;69.28
76855;DHT22;65828;44.726;37.764;2022-12-18T13:21:33;9.46;69.12
76855;DHT22;65828;44.726;37.764;2022-12-18T13:24:27;9.47;69.30
76855;DHT22;65828;44.726;37.764;2022-12-18T13:27:46;9.51;69.27
76855;DHT22;65828;44.726;37.764;2022-12-18T13:31:09;9.42;69.26
76855;DHT22;65828;44.726;37.764;2022-12-18T13:34:27;9.41;69.54
76855;DHT22;65828;44.726;37.764;2022-12-18T13:37:43;9.40;69.44
76855;DHT22;65828;44.726;37.764;2022-12-18T13:46:19;9.37;69.33
76855;DHT22;65828;44.726;37.764;2022-12-18T13:52:34;9.52;69.29
76855;DHT22;65828;44.726;37.764;2022-12-18T13:55:36;9.42;69.71
76855;DHT22;65828;44.726;37.764;2022-12-18T13:58:13;9.46;68.95
76855;DHT22;65828;44.726;37.764;2022-12-18T14:00:46;9.39;69.34
76855;DHT22;65828;44.726;37.764;2022-12-18T14:03:25;9.37;68.79
76855;DHT22;65828;44.726;37.764;2022-12-18T14:06:02;9.31;69.26
76855;DHT22;65828;44.726;37.764;2022-12-18T14:08:39;9.32;69.65
76855;DHT22;65828;44.726;37.764;2022-12-18T14:11:36;9.35;69.13
76855;DHT22;65828;44.726;37.764;2022-12-18T14:14:36;9.36;68.98
76855;DHT22;65828;44.726;37.764;2022-12-18T14:17:34;9.33;69.29
76855;DHT22;65828;44.726;37.764;2022-12-18T14:20:32;9.27;68.58
76855;DHT22;65828;44.726;37.764;2022-12-18T14:23:34;9.20;68.55
76855;DHT22;65828;44.726;37.764;2022-12-18T14:26:35;9.20;68.97
76855;DHT22;65828;44.726;37.764;2022-12-18T14:29:29;9.16;68.61
76855;DHT22;65828;44.726;37.764;2022-12-18T14:32:22;9.15;68.94
76855;DHT22;65828;44.726;37.764;2022-12-18T14:35:13;9.09;69.29
76855;DHT22;65828;44.726;37.764;2022-12-18T14:38:30;9.08;69.39
76855;DHT22;65828;44.726;37.764;2022-12-18T14:41:22;9.06;70.00
76855;DHT22;65828;44.726;37.764;2022-12-18T14:44:12;9.10;69.71
76855;DHT22;65828;44.726;37.764;2022-12-18T14:47:15;9.14;68.51
76855;DHT22;65828;44.726;37.764;2022-12-18T14:50:14;9.12;68.66
76855;DHT22;65828;44.726;37.764;2022-12-18T14:53:33;9.06;68.35
76855;DHT22;65828;44.726;37.764;2022-12-18T14:56:24;9.05;68.50
76855;DHT22;65828;44.726;37.764;2022-12-18T14:59:17;9.06;68.42
76855;DHT22;65828;44.726;37.764;2022-12-18T15:02:26;9.06;68.72
76855;DHT22;65828;44.726;37.764;2022-12-18T15:05:31;9.11;68.71
76855;DHT22;65828;44.726;37.764;2022-12-18T15:08:36;9.00;69.35
76855;DHT22;65828;44.726;37.764;2022-12-18T15:11:49;9.05;69.61
76855;DHT22;65828;44.726;37.764;2022-12-18T15:17:22;9.11;69.17
76855;DHT22;65828;44.726;37.764;2022-12-18T15:20:02;9.09;68.11
76855;DHT22;65828;44.726;37.764;2022-12-18T15:22:47;9.01;67.98
76855;DHT22;65828;44.726;37.764;2022-12-18T15:25:43;9.03;67.91
76855;DHT22;65828;44.726;37.764;2022-12-18T15:28:27;8.96;67.65
76855;DHT22;65828;44.726;37.764;2022-12-18T15:36:54;8.92;66.92
76855;DHT22;65828;44.726;37.764;2022-12-18T15:39:57;8.92;67.14
76855;DHT22;65828;44.726;37.764;2022-12-18T15:42:51;8.89;67.75
76855;DHT22;65828;44.726;37.764;2022-12-18T15:46:30;8.87;68.33
76855;DHT22;65828;44.726;37.764;2022-12-18T15:49:18;8.86;68.39
76855;DHT22;65828;44.726;37.764;2022-12-18T15:52:18;8.83;68.75
76855;DHT22;65828;44.726;37.764;2022-12-18T15:55:24;8.80;67.12
76855;DHT22;65828;44.726;37.764;2022-12-18T15:58:43;8.68;66.84
76855;DHT22;65828;44.726;37.764;2022-12-18T16:01:41;8.65;65.85
76855;DHT22;65828;44.726;37.764;2022-12-18T16:04:44;8.67;66.59
76855;DHT22;65828;44.726;37.764;2022-12-18T16:07:38;8.60;68.30
76855;DHT22;65828;44.726;37.764;2022-12-18T16:10:36;8.35;68.75
76855;DHT22;65828;44.726;37.764;2022-12-18T16:13:26;8.18;68.58
76855;DHT22;65828;44.726;37.764;2022-12-18T16:16:42;8.03;67.84
76855;DHT22;65828;44.726;37.764;2022-12-18T16:19:34;7.91;68.72
76855;DHT22;65828;44.726;37.764;2022-12-18T16:22:30;7.91;67.73
76855;DHT22;65828;44.726;37.764;2022-12-18T16:25:26;7.87;66.64
76855;DHT22;65828;44.726;37.764;2022-12-18T16:28:19;7.87;65.71
76855;DHT22;65828;44.726;37.764;2022-12-18T16:30:58;7.90;65.21
76855;DHT22;65828;44.726;37.764;2022-12-18T16:34:19;7.91;63.77
76855;DHT22;65828;44.726;37.764;2022-12-18T16:37:15;7.81;63.99
76855;DHT22;65828;44.726;37.764;2022-12-18T16:40:08;7.77;63.78
76855;DHT22;65828;44.726;37.764;2022-12-18T16:43:00;7.74;64.18
76855;DHT22;65828;44.726;37.764;2022-12-18T16:45:36;7.76;63.45
76855;DHT22;65828;44.726;37.764;2022-12-18T16:48:16;7.70;63.00
76855;DHT22;65828;44.726;37.764;2022-12-18T16:51:14;7.68;63.47
76855;DHT22;65828;44.726;37.764;2022-12-18T16:54:19;7.61;64.53
76855;DHT22;65828;44.726;37.764;2022-12-18T16:57:17;7.44;65.30
76855;DHT22;65828;44.726;37.764;2022-12-18T17:00:19;7.37;64.58
76855;DHT22;65828;44.726;37.764;2022-12-18T17:03:11;7.25;64.71
76855;DHT22;65828;44.726;37.764;2022-12-18T17:05:45;7.17;65.38
76855;DHT22;65828;44.726;37.764;2022-12-18T17:08:25;7.14;65.33
76855;DHT22;65828;44.726;37.764;2022-12-18T17:11:15;7.08;64.76
76855;DHT22;65828;44.726;37.764;2022-12-18T17:14:09;7.12;64.32
76855;DHT22;65828;44.726;37.764;2022-12-18T17:17:03;7.04;63.73
76855;DHT22;65828;44.726;37.764;2022-12-18T17:19:43;7.07;64.79
76855;DHT22;65828;44.726;37.764;2022-12-18T17:22:37;7.05;64.64
76855;DHT22;65828;44.726;37.764;2022-12-18T17:25:40;7.05;64.53
76855;DHT22;65828;44.726;37.764;2022-12-18T17:28:38;6.99;64.96
76855;DHT22;65828;44.726;37.764;2022-12-18T17:31:34;6.96;63.87
76855;DHT22;65828;44.726;37.764;2022-12-18T17:34:37;6.91;64.64
76855;DHT22;65828;44.726;37.764;2022-12-18T17:37:32;6.84;65.00
76855;DHT22;65828;44.726;37.764;2022-12-18T17:40:34;6.87;64.33
76855;DHT22;65828;44.726;37.764;2022-12-18T17:43:22;6.88;64.62
76855;DHT22;65828;44.726;37.764;2022-12-18T17:46:18;6.87;64.30
76855;DHT22;65828;44.726;37.764;2022-12-18T17:49:17;6.86;64.20
76855;DHT22;65828;44.726;37.764;2022-12-18T17:52:16;6.83;64.24
76855;DHT22;65828;44.726;37.764;2022-12-18T17:55:11;6.86;64.20
76855;DHT22;65828;44.726;37.764;2022-12-18T17:58:02;6.87;63.96
76855;DHT22;65828;44.726;37.764;2022-12-18T18:01:04;6.82;65.33
76855;DHT22;65828;44.726;37.764;2022-12-18T18:04:03;6.91;66.06
76855;DHT22;65828;44.726;37.764;2022-12-18T18:07:07;6.96;65.87
76855;DHT22;65828;44.726;37.764;2022-12-18T18:10:10;6.99;64.83
76855;DHT22;65828;44.726;37.764;2022-12-18T18:13:19;6.89;64.38
76855;DHT22;65828;44.726;37.764;2022-12-18T18:16:38;6.90;64.26
76855;DHT22;65828;44.726;37.764;2022-12-18T18:19:35;6.97;63.98
76855;DHT22;65828;44.726;37.764;2022-12-18T18:22:36;6.95;64.03
76855;DHT22;65828;44.726;37.764;2022-12-18T18:25:37;6.96;63.81
76855;DHT22;65828;44.726;37.764;2022-12-18T18:28:35;6.88;64.37
76855;DHT22;65828;44.726;37.764;2022-12-18T18:31:39;6.93;63.40
76855;DHT22;65828;44.726;37.764;2022-12-18T18:34:34;6.94;63.76
76855;DHT22;65828;44.726;37.764;2022-12-18T18:37:23;6.89;63.40
76855;DHT22;65828;44.726;37.764;2022-12-18T18:40:15;6.81;64.09
76855;DHT22;65828;44.726;37.764;2022-12-18T18:43:15;6.81;63.40
76855;DHT22;65828;44.726;37.764;2022-12-18T18:45:59;6.78;63.57
76855;DHT22;65828;44.726;37.764;2022-12-18T18:48:39;6.73;64.06
76855;DHT22;65828;44.726;37.764;2022-12-18T18:51:18;6.63;64.28
76855;DHT22;65828;44.726;37.764;2022-12-18T18:54:00;6.64;64.13
76855;DHT22;65828;44.726;37.764;2022-12-18T18:56:35;6.67;64.08
76855;DHT22;65828;44.726;37.764;2022-12-18T18:59:27;6.59;64.07
76855;DHT22;65828;44.726;37.764;2022-12-18T19:02:26;6.51;64.19
76855;DHT22;65828;44.726;37.764;2022-12-18T19:05:26;6.50;63.60
76855;DHT22;65828;44.726;37.764;2022-12-18T19:08:46;6.51;63.56
76855;DHT22;65828;44.726;37.764;2022-12-18T19:11:48;6.45;63.14
76855;DHT22;65828;44.726;37.764;2022-12-18T19:15:06;6.38;62.92
76855;DHT22;65828;44.726;37.764;2022-12-18T19:18:02;6.29;62.87
76855;DHT22;65828;44.726;37.764;2022-12-18T19:21:03;6.21;63.26
76855;DHT22;65828;44.726;37.764;2022-12-18T19:24:04;6.13;63.16
76855;DHT22;65828;44.726;37.764;2022-12-18T19:27:00;6.09;63.76
76855;DHT22;65828;44.726;37.764;2022-12-18T19:30:01;6.13;63.48
76855;DHT22;65828;44.726;37.764;2022-12-18T19:33:06;6.13;63.96
76855;DHT22;65828;44.726;37.764;2022-12-18T19:38:57;6.17;64.04
76855;DHT22;65828;44.726;37.764;2022-12-18T19:41:36;6.14;63.91
76855;DHT22;65828;44.726;37.764;2022-12-18T19:44:12;6.06;63.89
76855;DHT22;65828;44.726;37.764;2022-12-18T19:46:51;5.97;64.66
76855;DHT22;65828;44.726;37.764;2022-12-18T19:49:29;5.94;64.50
76855;DHT22;65828;44.726;37.764;2022-12-18T19:52:32;5.97;64.98
76855;DHT22;65828;44.726;37.764;2022-12-18T19:55:26;5.85;63.86
76855;DHT22;65828;44.726;37.764;2022-12-18T19:58:17;5.82;64.73
76855;DHT22;65828;44.726;37.764;2022-12-18T20:01:16;5.80;64.31
76855;DHT22;65828;44.726;37.764;2022-12-18T20:04:05;5.75;64.84
76855;DHT22;65828;44.726;37.764;2022-12-18T20:07:08;5.75;64.43
76855;DHT22;65828;44.726;37.764;2022-12-18T20:10:09;5.70;63.87
76855;DHT22;65828;44.726;37.764;2022-12-18T20:13:07;5.60;64.72
76855;DHT22;65828;44.726;37.764;2022-12-18T20:16:06;5.56;64.86
76855;DHT22;65828;44.726;37.764;2022-12-18T20:18:43;5.59;64.95
76855;DHT22;65828;44.726;37.764;2022-12-18T20:21:32;5.52;65.17
76855;DHT22;65828;44.726;37.764;2022-12-18T20:24:23;5.52;66.05
76855;DHT22;65828;44.726;37.764;2022-12-18T20:27:12;5.52;67.01
76855;DHT22;65828;44.726;37.764;2022-12-18T20:29:46;5.41;67.75
76855;DHT22;65828;44.726;37.764;2022-12-18T20:32:35;5.37;67.68
76855;DHT22;65828;44.726;37.764;2022-12-18T20:35:09;5.35;67.01
76855;DHT22;65828;44.726;37.764;2022-12-18T20:37:45;5.36;67.14
76855;DHT22;65828;44.726;37.764;2022-12-18T20:40:41;5.39;66.72
76855;DHT22;65828;44.726;37.764;2022-12-18T20:43:32;5.37;66.62
76855;DHT22;65828;44.726;37.764;2022-12-18T20:46:34;5.31;66.11
76855;DHT22;65828;44.726;37.764;2022-12-18T20:49:08;5.26;65.91
76855;DHT22;65828;44.726;37.764;2022-12-18T20:51:43;5.15;66.36
76855;DHT22;65828;44.726;37.764;2022-12-18T20:54:22;5.05;66.49
76855;DHT22;65828;44.726;37.764;2022-12-18T20:57:01;5.02;66.55
76855;DHT22;65828;44.726;37.764;2022-12-18T20:59:34;5.00;66.57
76855;DHT22;65828;44.726;37.764;2022-12-18T21:02:14;4.98;67.00
76855;DHT22;65828;44.726;37.764;2022-12-18T21:04:56;4.94;67.23
76855;DHT22;65828;44.726;37.764;2022-12-18T21:07:55;4.87;66.78
76855;DHT22;65828;44.726;37.764;2022-12-18T21:11:16;4.79;66.71
76855;DHT22;65828;44.726;37.764;2022-12-18T21:14:33;4.80;66.53
76855;DHT22;65828;44.726;37.764;2022-12-18T21:17:35;4.75;66.75
76855;DHT22;65828;44.726;37.764;2022-12-18T21:20:38;4.74;66.69
76855;DHT22;65828;44.726;37.764;2022-12-18T21:23:34;4.66;66.98
76855;DHT22;65828;44.726;37.764;2022-12-18T21:26:32;4.64;66.73
76855;DHT22;65828;44.726;37.764;2022-12-18T21:29:28;4.61;66.57
76855;DHT22;65828;44.726;37.764;2022-12-18T21:32:31;4.62;65.81
76855;DHT22;65828;44.726;37.764;2022-12-18T21:35:32;4.63;65.59
76855;DHT22;65828;44.726;37.764;2022-12-18T21:38:24;4.53;66.04
76855;DHT22;65828;44.726;37.764;2022-12-18T21:41:18;4.48;65.34
76855;DHT22;65828;44.726;37.764;2022-12-18T21:44:28;4.49;65.19
76855;DHT22;65828;44.726;37.764;2022-12-18T21:47:17;4.39;65.31
76855;DHT22;65828;44.726;37.764;2022-12-18T21:49:53;4.37;65.89
76855;DHT22;65828;44.726;37.764;2022-12-18T21:52:46;4.44;65.16
76855;DHT22;65828;44.726;37.764;2022-12-18T21:55:39;4.45;65.11
76855;DHT22;65828;44.726;37.764;2022-12-18T21:58:30;4.48;64.76
76855;DHT22;65828;44.726;37.764;2022-12-18T22:01:19;4.45;65.34
76855;DHT22;65828;44.726;37.764;2022-12-18T22:04:10;4.44;65.76
76855;DHT22;65828;44.726;37.764;2022-12-18T22:07:07;4.42;65.35
76855;DHT22;65828;44.726;37.764;2022-12-18T22:10:09;4.39;64.11
76855;DHT22;65828;44.726;37.764;2022-12-18T22:13:10;4.34;65.18
76855;DHT22;65828;44.726;37.764;2022-12-18T22:16:13;4.32;64.84
76855;DHT22;65828;44.726;37.764;2022-12-18T22:19:03;4.36;64.56
76855;DHT22;65828;44.726;37.764;2022-12-18T22:22:01;4.31;64.47
76855;DHT22;65828;44.726;37.764;2022-12-18T22:24:53;4.23;65.08
76855;DHT22;65828;44.726;37.764;2022-12-18T22:27:48;4.17;64.83
76855;DHT22;65828;44.726;37.764;2022-12-18T22:30:59;4.21;64.63
76855;DHT22;65828;44.726;37.764;2022-12-18T22:33:51;4.14;64.45
76855;DHT22;65828;44.726;37.764;2022-12-18T22:36:45;4.16;63.89
76855;DHT22;65828;44.726;37.764;2022-12-18T22:39:43;4.12;64.11
76855;DHT22;65828;44.726;37.764;2022-12-18T22:42:42;4.16;64.15
76855;DHT22;65828;44.726;37.764;2022-12-18T22:45:42;4.16;64.11
76855;DHT22;65828;44.726;37.764;2022-12-18T22:48:46;4.05;64.56
76855;DHT22;65828;44.726;37.764;2022-12-18T22:51:42;4.00;64.95
76855;DHT22;65828;44.726;37.764;2022-12-18T22:54:40;4.01;65.10
76855;DHT22;65828;44.726;37.764;2022-12-18T22:57:33;3.95;64.66
76855;DHT22;65828;44.726;37.764;2022-12-18T23:00:31;3.93;65.13
76855;DHT22;65828;44.726;37.764;2022-12-18T23:03:35;3.93;64.79
76855;DHT22;65828;44.726;37.764;2022-12-18T23:06:31;3.94;64.67
76855;DHT22;65828;44.726;37.764;2022-12-18T23:09:19;4.03;64.47
76855;DHT22;65828;44.726;37.764;2022-12-18T23:11:55;4.02;65.33
76855;DHT22;65828;44.726;37.764;2022-12-18T23:14:30;4.07;65.24
76855;DHT22;65828;44.726;37.764;2022-12-18T23:17:07;4.04;65.19
76855;DHT22;65828;44.726;37.764;2022-12-18T23:19:40;3.98;65.51
76855;DHT22;65828;44.726;37.764;2022-12-18T23:22:14;3.94;65.80
76855;DHT22;65828;44.726;37.764;2022-12-18T23:25:14;3.93;65.78
76855;DHT22;65828;44.726;37.764;2022-12-18T23:27:50;4.02;65.37
76855;DHT22;65828;44.726;37.764;2022-12-18T23:30:39;3.88;64.65
76855;DHT22;65828;44.726;37.764;2022-12-18T23:33:29;3.86;64.97
76855;DHT22;65828;44.726;37.764;2022-12-18T23:36:20;3.86;65.56
76855;DHT22;65828;44.726;37.764;2022-12-18T23:39:13;3.94;65.05
76855;DHT22;65828;44.726;37.764;2022-12-18T23:42:04;3.90;64.87
76855;DHT22;65828;44.726;37.764;2022-12-18T23:44:58;3.89;64.80
76855;DHT22;65828;44.726;37.764;2022-12-18T23:47:59;3.91;64.68
76855;DHT22;65828;44.726;37.764;2022-12-18T23:51:04;3.89;64.63
76855;DHT22;65828;44.726;37.764;2022-12-18T23:54:01;3.90;64.59
76855;DHT22;65828;44.726;37.764;2022-12-18T23:56:53;3.82;64.12
76855;DHT22;65828;44.726;37.764;2022-12-18T23:59:52;3.69;65.47
